Time;durP1;ratioP1;P1;durP2;ratioP2;P2;SDS_P1;SDS_P2;PMS_P1;PMS_P2;Temp;Humidity;BMP_temperature;BMP_pressure;BME280_temperature;BME280_humidity;BME280_pressure;Samples;Min_cycle;Max_cycle;Signal;HPM_P1;HPM_P2
2021/05/30 00:01:12;;;;;;;6.90;4.82;;;;;;;;;;5051865;28;20411;-75
2021/05/30 00:03:39;;;;;;;8.82;4.90;;;;;;;;;;5070712;28;20027;-75
2021/05/30 00:06:04;;;;;;;9.43;5.15;;;;;;;;;;5064710;28;20128;-75
2021/05/30 00:08:29;;;;;;;7.45;4.82;;;;;;;;;;5063772;28;20013;-75
2021/05/30 00:10:55;;;;;;;7.88;5.53;;;;;;;;;;5070720;28;20060;-75
2021/05/30 00:13:20;;;;;;;8.52;5.53;;;;;;;;;;5070606;28;20021;-75
2021/05/30 00:15:46;;;;;;;9.80;5.32;;;;;;;;;;5064229;28;20036;-74
2021/05/30 00:18:12;;;;;;;8.38;5.57;;;;;;;;;;5066014;28;20384;-75
2021/05/30 00:20:37;;;;;;;9.50;5.75;;;;;;;;;;5055074;28;20024;-75
2021/05/30 00:23:02;;;;;;;8.45;5.93;;;;;;;;;;5063766;28;20124;-74
2021/05/30 00:25:27;;;;;;;11.10;5.40;;;;;;;;;;5054159;28;20029;-75
2021/05/30 00:27:52;;;;;;;8.13;4.93;;;;;;;;;;5070759;28;20021;-74
2021/05/30 00:30:18;;;;;;;10.38;5.30;;;;;;;;;;5067733;28;20025;-74
2021/05/30 00:32:43;;;;;;;10.82;6.25;;;;;;;;;;5051345;28;20095;-75
2021/05/30 00:35:08;;;;;;;10.10;6.15;;;;;;;;;;5058717;28;20056;-75
2021/05/30 00:37:34;;;;;;;8.75;5.85;;;;;;;;;;5069044;28;20009;-75
2021/05/30 00:39:59;;;;;;;8.77;6.00;;;;;;;;;;5051049;28;20464;-74
2021/05/30 00:42:24;;;;;;;8.73;5.78;;;;;;;;;;5051488;28;20106;-74
2021/05/30 00:44:49;;;;;;;8.98;5.50;;;;;;;;;;5069427;28;20446;-76
2021/05/30 00:47:14;;;;;;;8.70;5.28;;;;;;;;;;5057171;28;20035;-75
2021/05/30 00:49:40;;;;;;;8.73;5.38;;;;;;;;;;5050560;28;20418;-75
2021/05/30 00:52:05;;;;;;;7.95;5.28;;;;;;;;;;5050436;28;20468;-74
2021/05/30 00:54:31;;;;;;;8.88;5.30;;;;;;;;;;5050700;28;20017;-74
2021/05/30 00:56:56;;;;;;;9.32;5.47;;;;;;;;;;5063982;28;20020;-74
2021/05/30 00:59:21;;;;;;;8.43;5.43;;;;;;;;;;5055557;28;20047;-73
2021/05/30 01:01:47;;;;;;;8.05;5.68;;;;;;;;;;5055092;28;20031;-74
2021/05/30 01:04:13;;;;;;;8.40;5.72;;;;;;;;;;5069269;28;20035;-74
2021/05/30 01:06:39;;;;;;;8.38;5.40;;;;;;;;;;5052921;28;20036;-75
2021/05/30 01:09:05;;;;;;;10.23;5.63;;;;;;;;;;5038547;28;20036;-74
2021/05/30 01:11:31;;;;;;;7.47;5.05;;;;;;;;;;5049901;28;20021;-73
2021/05/30 01:13:57;;;;;;;6.75;4.78;;;;;;;;;;5050145;28;20029;-74
2021/05/30 01:16:23;;;;;;;7.85;4.95;;;;;;;;;;5052690;28;20151;-74
2021/05/30 01:18:49;;;;;;;8.63;5.00;;;;;;;;;;5056524;28;20024;-73
2021/05/30 01:21:17;;;;;;;7.72;5.40;;;;;;;;;;5066564;28;20073;-74
2021/05/30 01:23:42;;;;;;;10.40;6.03;;;;;;;;;;5049609;28;20017;-74
2021/05/30 01:26:08;;;;;;;8.60;5.47;;;;;;;;;;5050239;28;20095;-74
2021/05/30 01:28:33;;;;;;;8.60;5.85;;;;;;;;;;5057342;28;20791;-75
2021/05/30 01:30:58;;;;;;;11.80;6.10;;;;;;;;;;5049828;28;20031;-74
2021/05/30 01:33:24;;;;;;;9.52;5.25;;;;;;;;;;5031804;28;20087;-74
2021/05/30 01:35:49;;;;;;;8.82;5.93;;;;;;;;;;5068689;28;20048;-73
2021/05/30 01:38:14;;;;;;;7.60;5.00;;;;;;;;;;5049361;28;20044;-74
2021/05/30 01:40:40;;;;;;;9.18;5.53;;;;;;;;;;5049530;28;20021;-75
2021/05/30 01:43:05;;;;;;;8.43;5.25;;;;;;;;;;5062687;28;20060;-74
2021/05/30 01:45:32;;;;;;;7.80;5.03;;;;;;;;;;5068745;28;20048;-74
2021/05/30 01:47:57;;;;;;;8.20;5.00;;;;;;;;;;5055856;28;20419;-75
2021/05/30 01:50:23;;;;;;;8.23;4.70;;;;;;;;;;5069584;28;20057;-73
2021/05/30 01:52:49;;;;;;;9.90;5.35;;;;;;;;;;5051146;28;20029;-74
2021/05/30 01:55:27;;;;;;;10.40;4.82;;;;;;;;;;5054444;28;20122;-74
2021/05/30 01:57:54;;;;;;;9.10;5.13;;;;;;;;;;5049402;28;20017;-74
2021/05/30 02:00:19;;;;;;;8.35;5.15;;;;;;;;;;5049971;28;20025;-74
2021/05/30 02:02:46;;;;;;;7.60;4.80;;;;;;;;;;5055802;28;20024;-75
2021/05/30 02:05:11;;;;;;;8.52;4.97;;;;;;;;;;5050317;28;20450;-75
2021/05/30 02:07:38;;;;;;;7.35;5.07;;;;;;;;;;5051062;28;20021;-74
2021/05/30 02:10:03;;;;;;;8.45;5.03;;;;;;;;;;5055327;28;20031;-73
2021/05/30 02:12:28;;;;;;;7.10;4.88;;;;;;;;;;5069133;28;20021;-74
2021/05/30 02:14:55;;;;;;;7.70;4.60;;;;;;;;;;5051451;28;20021;-74
2021/05/30 02:17:21;;;;;;;7.68;5.07;;;;;;;;;;5052842;28;20650;-74
2021/05/30 02:19:47;;;;;;;8.30;5.50;;;;;;;;;;5051931;28;20116;-73
2021/05/30 02:22:13;;;;;;;7.70;5.13;;;;;;;;;;5049092;28;20516;-74
2021/05/30 02:24:38;;;;;;;7.13;4.75;;;;;;;;;;5058549;28;20036;-75
2021/05/30 02:27:03;;;;;;;6.63;4.57;;;;;;;;;;5062144;28;20039;-74
2021/05/30 02:29:33;;;;;;;8.30;5.35;;;;;;;;;;5052567;28;20533;-73
2021/05/30 02:31:58;;;;;;;6.88;4.72;;;;;;;;;;5048730;28;20027;-74
2021/05/30 02:34:23;;;;;;;8.43;5.60;;;;;;;;;;5063920;28;20136;-74
2021/05/30 02:36:48;;;;;;;7.82;4.82;;;;;;;;;;5068237;28;20067;-74
2021/05/30 02:39:14;;;;;;;8.48;5.07;;;;;;;;;;5068219;28;20021;-74
2021/05/30 02:41:39;;;;;;;7.50;5.10;;;;;;;;;;5061164;28;20021;-75
2021/05/30 02:44:04;;;;;;;8.43;5.03;;;;;;;;;;5049069;28;20518;-73
2021/05/30 02:46:29;;;;;;;8.85;5.10;;;;;;;;;;5048964;28;20036;-75
2021/05/30 02:48:54;;;;;;;10.10;5.47;;;;;;;;;;5055552;28;20468;-75
2021/05/30 02:51:20;;;;;;;10.20;6.63;;;;;;;;;;5061789;28;20100;-74
2021/05/30 02:53:45;;;;;;;9.38;6.05;;;;;;;;;;5055708;28;20022;-73
2021/05/30 02:56:10;;;;;;;8.38;5.75;;;;;;;;;;5053958;28;20060;-74
2021/05/30 02:58:35;;;;;;;8.65;5.45;;;;;;;;;;5056575;28;20075;-74
2021/05/30 03:01:00;;;;;;;7.80;5.53;;;;;;;;;;5060090;28;20024;-74
2021/05/30 03:03:25;;;;;;;9.96;4.86;;;;;;;;;;5067654;28;20024;-74
2021/05/30 03:05:51;;;;;;;8.68;4.53;;;;;;;;;;5067766;28;20032;-73
2021/05/30 03:08:16;;;;;;;6.63;4.25;;;;;;;;;;5059773;28;20017;-74
2021/05/30 03:10:42;;;;;;;6.13;4.13;;;;;;;;;;5061661;28;20028;-74
2021/05/30 03:13:07;;;;;;;5.70;4.32;;;;;;;;;;5071363;28;20026;-75
2021/05/30 03:15:33;;;;;;;6.95;4.70;;;;;;;;;;5068866;28;20028;-74
2021/05/30 03:17:58;;;;;;;9.88;5.05;;;;;;;;;;5058826;28;20032;-75
2021/05/30 03:20:23;;;;;;;6.75;4.10;;;;;;;;;;5058341;28;20021;-73
2021/05/30 03:22:48;;;;;;;7.18;4.13;;;;;;;;;;5051731;28;20361;-75
2021/05/30 03:25:14;;;;;;;9.27;4.63;;;;;;;;;;5052038;28;20055;-74
2021/05/30 03:27:39;;;;;;;8.60;4.75;;;;;;;;;;5071300;28;20028;-75
2021/05/30 03:30:05;;;;;;;6.13;4.28;;;;;;;;;;5064620;28;20084;-75
2021/05/30 03:32:30;;;;;;;6.70;4.40;;;;;;;;;;5039062;28;20055;-73
2021/05/30 03:34:55;;;;;;;7.35;4.50;;;;;;;;;;5051959;28;20104;-74
2021/05/30 03:37:21;;;;;;;7.40;4.50;;;;;;;;;;5063403;28;20024;-74
2021/05/30 03:39:46;;;;;;;7.07;4.43;;;;;;;;;;5071015;28;20016;-74
2021/05/30 03:42:20;;;;;;;7.60;4.47;;;;;;;;;;5071153;28;20029;-73
2021/05/30 03:44:46;;;;;;;6.82;4.70;;;;;;;;;;5070848;28;20035;-74
2021/05/30 03:47:13;;;;;;;7.20;4.20;;;;;;;;;;5070665;28;20103;-75
2021/05/30 03:49:41;;;;;;;7.05;4.65;;;;;;;;;;5071063;28;20116;-74
2021/05/30 03:52:06;;;;;;;6.93;4.72;;;;;;;;;;5051707;28;20139;-76
2021/05/30 03:54:31;;;;;;;7.70;4.78;;;;;;;;;;5062988;28;20092;-74
2021/05/30 03:56:57;;;;;;;7.90;5.00;;;;;;;;;;5065995;28;20098;-73
2021/05/30 03:59:22;;;;;;;7.18;4.93;;;;;;;;;;5058255;28;20017;-75
2021/05/30 04:01:47;;;;;;;8.60;5.72;;;;;;;;;;5061884;28;20025;-75
2021/05/30 04:04:13;;;;;;;7.88;5.05;;;;;;;;;;5070805;28;20088;-75
2021/05/30 04:06:38;;;;;;;8.90;5.05;;;;;;;;;;5052742;28;20356;-75
2021/05/30 04:09:03;;;;;;;7.88;5.35;;;;;;;;;;5054674;28;20028;-74
2021/05/30 04:11:29;;;;;;;8.00;5.32;;;;;;;;;;5050671;28;20082;-75
2021/05/30 04:13:54;;;;;;;8.45;4.95;;;;;;;;;;5058088;28;20028;-76
2021/05/30 04:16:19;;;;;;;9.02;5.30;;;;;;;;;;5058952;28;20028;-74
2021/05/30 04:18:44;;;;;;;7.97;5.00;;;;;;;;;;5061532;28;20136;-74
2021/05/30 04:21:09;;;;;;;8.27;5.15;;;;;;;;;;5065090;28;20159;-74
2021/05/30 04:23:35;;;;;;;7.00;5.00;;;;;;;;;;5063695;28;20495;-73
2021/05/30 04:26:00;;;;;;;8.23;5.35;;;;;;;;;;5062977;28;20072;-73
2021/05/30 04:28:25;;;;;;;7.63;4.63;;;;;;;;;;5057667;28;20370;-75
2021/05/30 04:30:50;;;;;;;5.70;4.43;;;;;;;;;;5070073;28;20024;-74
2021/05/30 04:33:16;;;;;;;4.75;3.50;;;;;;;;;;5056395;28;20052;-75
2021/05/30 04:35:41;;;;;;;5.25;3.72;;;;;;;;;;5063663;28;20013;-75
2021/05/30 04:38:06;;;;;;;5.68;3.72;;;;;;;;;;5056780;28;20020;-74
2021/05/30 04:40:32;;;;;;;4.43;3.53;;;;;;;;;;5069747;28;20437;-75
2021/05/30 04:42:57;;;;;;;5.55;3.63;;;;;;;;;;5077488;28;20044;-74
2021/05/30 04:45:22;;;;;;;4.50;3.15;;;;;;;;;;5059192;28;20036;-75
2021/05/30 04:47:47;;;;;;;4.88;3.17;;;;;;;;;;5069685;28;20333;-73
2021/05/30 04:50:14;;;;;;;5.88;4.15;;;;;;;;;;5069674;28;20029;-75
2021/05/30 04:52:39;;;;;;;5.10;3.50;;;;;;;;;;5062949;28;20043;-75
2021/05/30 04:55:05;;;;;;;5.35;3.65;;;;;;;;;;5069142;28;20020;-74
2021/05/30 04:57:30;;;;;;;4.43;3.10;;;;;;;;;;5070053;28;20510;-74
2021/05/30 04:59:55;;;;;;;4.82;3.55;;;;;;;;;;5061233;28;20087;-73
2021/05/30 05:02:20;;;;;;;7.63;3.33;;;;;;;;;;5058756;28;20024;-72
2021/05/30 05:04:45;;;;;;;4.65;3.50;;;;;;;;;;5061955;28;20260;-73
2021/05/30 05:07:11;;;;;;;5.10;3.57;;;;;;;;;;5050136;28;20021;-76
2021/05/30 05:09:36;;;;;;;4.60;3.33;;;;;;;;;;5056949;28;20266;-75
2021/05/30 05:12:01;;;;;;;4.37;3.13;;;;;;;;;;5069161;28;20032;-75
2021/05/30 05:14:26;;;;;;;4.95;3.38;;;;;;;;;;5063142;28;20812;-75
2021/05/30 05:16:52;;;;;;;5.25;3.47;;;;;;;;;;5049699;28;20506;-75
2021/05/30 05:19:17;;;;;;;5.70;3.50;;;;;;;;;;5056000;28;20115;-74
2021/05/30 05:21:42;;;;;;;5.40;3.23;;;;;;;;;;5063993;28;20028;-75
2021/05/30 05:24:07;;;;;;;6.50;3.40;;;;;;;;;;5055455;28;20301;-76
2021/05/30 05:26:33;;;;;;;4.47;3.45;;;;;;;;;;5064488;28;20051;-75
2021/05/30 05:28:58;;;;;;;4.53;3.40;;;;;;;;;;5049993;28;20125;-76
2021/05/30 05:31:23;;;;;;;4.40;2.90;;;;;;;;;;5052878;28;20021;-76
2021/05/30 05:33:49;;;;;;;4.43;3.33;;;;;;;;;;5047389;28;20283;-76
2021/05/30 05:36:16;;;;;;;4.65;3.03;;;;;;;;;;5062955;28;20017;-76
2021/05/30 05:38:42;;;;;;;4.07;3.25;;;;;;;;;;5049473;28;20036;-75
2021/05/30 05:41:07;;;;;;;4.32;3.15;;;;;;;;;;5049736;28;20017;-76
2021/05/30 05:43:32;;;;;;;4.82;3.63;;;;;;;;;;5052526;28;20026;-76
2021/05/30 05:45:57;;;;;;;5.40;3.30;;;;;;;;;;5054423;28;20029;-76
2021/05/30 05:48:23;;;;;;;4.38;3.08;;;;;;;;;;5049677;28;20984;-76
2021/05/30 05:50:48;;;;;;;3.55;2.80;;;;;;;;;;5050253;28;20029;-76
2021/05/30 05:53:13;;;;;;;5.38;3.20;;;;;;;;;;5062493;28;20028;-77
2021/05/30 05:55:39;;;;;;;4.28;3.00;;;;;;;;;;5049801;28;20025;-76
2021/05/30 05:58:04;;;;;;;5.53;3.00;;;;;;;;;;5049830;28;20029;-76
2021/05/30 06:00:30;;;;;;;4.63;3.15;;;;;;;;;;5055871;28;20033;-76
2021/05/30 06:02:55;;;;;;;6.28;3.72;;;;;;;;;;5049300;28;20088;-77
2021/05/30 06:05:21;;;;;;;4.40;2.90;;;;;;;;;;5049550;28;20041;-77
2021/05/30 06:07:47;;;;;;;4.75;3.08;;;;;;;;;;5049507;28;20017;-78
2021/05/30 06:10:14;;;;;;;4.55;3.45;;;;;;;;;;5054411;28;20070;-77
2021/05/30 06:12:39;;;;;;;6.30;3.70;;;;;;;;;;5050518;28;20140;-77
2021/05/30 06:15:05;;;;;;;6.03;3.40;;;;;;;;;;5064065;28;20898;-76
2021/05/30 06:17:30;;;;;;;5.22;3.35;;;;;;;;;;5060500;28;20430;-77
2021/05/30 06:19:55;;;;;;;5.80;3.72;;;;;;;;;;5064117;28;20073;-76
2021/05/30 06:22:21;;;;;;;6.07;3.57;;;;;;;;;;5059685;28;20017;-76
2021/05/30 06:24:46;;;;;;;5.83;3.50;;;;;;;;;;5035825;28;20309;-76
2021/05/30 06:27:11;;;;;;;5.93;3.70;;;;;;;;;;5059216;28;20267;-77
2021/05/30 06:29:37;;;;;;;6.50;4.00;;;;;;;;;;5068094;28;20028;-77
2021/05/30 06:32:02;;;;;;;8.57;4.30;;;;;;;;;;5060019;28;20021;-74
2021/05/30 06:34:27;;;;;;;6.82;4.32;;;;;;;;;;5049366;28;20039;-77
2021/05/30 06:36:53;;;;;;;7.70;4.30;;;;;;;;;;5057243;28;20379;-76
2021/05/30 06:39:18;;;;;;;7.13;4.20;;;;;;;;;;5060672;28;20024;-77
2021/05/30 06:41:43;;;;;;;6.28;4.20;;;;;;;;;;5049275;28;20476;-76
2021/05/30 06:44:09;;;;;;;6.43;3.67;;;;;;;;;;5053734;28;20021;-76
2021/05/30 06:46:34;;;;;;;7.90;3.83;;;;;;;;;;5072447;28;20036;-76
2021/05/30 06:49:00;;;;;;;5.97;3.55;;;;;;;;;;5046252;28;20017;-76
2021/05/30 06:51:29;;;;;;;6.63;3.85;;;;;;;;;;5065754;28;20032;-77
2021/05/30 06:53:55;;;;;;;5.15;4.00;;;;;;;;;;5059653;28;20028;-77
2021/05/30 06:56:20;;;;;;;5.32;3.65;;;;;;;;;;5071668;28;20028;-76
2021/05/30 06:58:45;;;;;;;5.97;3.80;;;;;;;;;;5066007;28;20020;-77
2021/05/30 07:01:11;;;;;;;5.35;3.72;;;;;;;;;;5060656;28;20545;-77
2021/05/30 07:03:37;;;;;;;6.78;3.90;;;;;;;;;;5070817;28;20016;-76
2021/05/30 07:06:02;;;;;;;5.57;3.65;;;;;;;;;;5060722;28;20032;-77
2021/05/30 07:08:27;;;;;;;5.65;3.83;;;;;;;;;;5034863;28;20021;-76
2021/05/30 07:10:54;;;;;;;4.63;3.50;;;;;;;;;;5062756;28;20039;-77
2021/05/30 07:13:19;;;;;;;5.22;3.58;;;;;;;;;;5072077;28;20013;-77
2021/05/30 07:15:44;;;;;;;4.88;3.30;;;;;;;;;;5062406;28;20023;-78
2021/05/30 07:18:10;;;;;;;5.82;3.58;;;;;;;;;;5059199;28;20021;-77
2021/05/30 07:20:35;;;;;;;4.67;3.20;;;;;;;;;;5061539;28;20041;-78
2021/05/30 07:23:00;;;;;;;6.88;3.47;;;;;;;;;;5063566;28;20418;-75
2021/05/30 07:25:25;;;;;;;5.63;3.67;;;;;;;;;;5059049;28;20033;-76
2021/05/30 07:27:51;;;;;;;6.57;3.70;;;;;;;;;;5059197;28;20328;-76
2021/05/30 07:30:17;;;;;;;7.95;4.03;;;;;;;;;;5059737;28;20031;-75
2021/05/30 07:32:42;;;;;;;7.30;4.38;;;;;;;;;;5058142;28;20040;-76
2021/05/30 07:35:07;;;;;;;7.40;3.70;;;;;;;;;;5071474;28;20024;-77
2021/05/30 07:37:32;;;;;;;7.13;4.38;;;;;;;;;;5052027;28;20317;-77
2021/05/30 07:39:57;;;;;;;6.15;3.83;;;;;;;;;;5059156;28;20017;-76
2021/05/30 07:42:23;;;;;;;9.13;3.70;;;;;;;;;;5065014;28;20025;-75
2021/05/30 07:44:48;;;;;;;6.85;3.55;;;;;;;;;;5059779;28;20028;-76
2021/05/30 07:47:13;;;;;;;7.68;3.60;;;;;;;;;;5070750;28;20096;-76
2021/05/30 07:49:38;;;;;;;5.95;3.78;;;;;;;;;;5066089;28;20021;-77
2021/05/30 07:52:04;;;;;;;5.85;3.55;;;;;;;;;;5072231;28;20020;-77
2021/05/30 07:54:29;;;;;;;5.55;3.17;;;;;;;;;;5062371;28;20016;-78
2021/05/30 07:56:54;;;;;;;7.07;3.05;;;;;;;;;;5053344;28;20020;-78
2021/05/30 07:59:20;;;;;;;5.55;2.78;;;;;;;;;;5055038;28;20365;-77
2021/05/30 08:01:46;;;;;;;5.63;3.20;;;;;;;;;;5067139;28;20063;-76
2021/05/30 08:04:11;;;;;;;5.35;2.70;;;;;;;;;;5055501;28;20029;-76
2021/05/30 08:06:36;;;;;;;3.70;2.75;;;;;;;;;;5068459;28;20107;-75
2021/05/30 08:09:02;;;;;;;4.47;2.40;;;;;;;;;;5070590;28;20086;-77
2021/05/30 08:11:28;;;;;;;5.22;2.97;;;;;;;;;;5064296;28;20298;-76
2021/05/30 08:13:53;;;;;;;4.45;2.42;;;;;;;;;;5056018;28;20055;-75
2021/05/30 08:16:19;;;;;;;6.53;3.70;;;;;;;;;;5051335;28;20033;-76
2021/05/30 08:18:44;;;;;;;5.25;2.60;;;;;;;;;;5051699;28;20021;-77
2021/05/30 08:21:09;;;;;;;4.50;2.20;;;;;;;;;;5070554;28;20052;-76
2021/05/30 08:23:35;;;;;;;5.10;2.47;;;;;;;;;;5057795;28;20048;-75
2021/05/30 08:26:01;;;;;;;4.90;2.58;;;;;;;;;;5064242;28;20287;-76
2021/05/30 08:28:26;;;;;;;4.50;2.40;;;;;;;;;;5051088;28;20032;-75
2021/05/30 08:30:51;;;;;;;2.53;1.85;;;;;;;;;;5050925;28;20459;-76
2021/05/30 08:33:16;;;;;;;4.38;2.22;;;;;;;;;;5055550;28;20116;-75
2021/05/30 08:35:42;;;;;;;4.35;2.33;;;;;;;;;;5052666;28;20039;-75
2021/05/30 08:38:07;;;;;;;3.90;2.10;;;;;;;;;;5068153;28;20517;-75
2021/05/30 08:40:33;;;;;;;3.40;2.28;;;;;;;;;;5053062;28;20029;-75
2021/05/30 08:42:58;;;;;;;3.95;2.30;;;;;;;;;;5050535;28;20021;-74
2021/05/30 08:45:24;;;;;;;5.28;2.70;;;;;;;;;;5051404;28;20017;-76
2021/05/30 08:47:49;;;;;;;6.38;2.95;;;;;;;;;;5051055;28;20032;-75
2021/05/30 08:50:15;;;;;;;4.72;2.70;;;;;;;;;;5050461;28;20028;-75
2021/05/30 08:52:40;;;;;;;6.13;3.28;;;;;;;;;;5065746;28;20398;-75
2021/05/30 08:55:06;;;;;;;5.03;2.67;;;;;;;;;;5066695;28;20493;-75
2021/05/30 08:57:31;;;;;;;4.47;2.72;;;;;;;;;;5057629;28;20021;-74
2021/05/30 08:59:57;;;;;;;5.10;3.47;;;;;;;;;;5049884;28;20792;-75
2021/05/30 09:02:23;;;;;;;4.65;3.10;;;;;;;;;;5050981;28;20433;-75
2021/05/30 09:04:48;;;;;;;6.18;3.40;;;;;;;;;;5069149;28;20208;-75
2021/05/30 09:07:13;;;;;;;6.65;3.03;;;;;;;;;;5051489;28;20134;-74
2021/05/30 09:09:39;;;;;;;10.18;3.30;;;;;;;;;;5056595;28;20361;-75
2021/05/30 09:12:10;;;;;;;3.80;2.40;;;;;;;;;;5063120;28;20056;-75
2021/05/30 09:14:39;;;;;;;5.57;2.85;;;;;;;;;;5057756;28;20031;-74
2021/05/30 09:17:07;;;;;;;3.72;2.30;;;;;;;;;;5068543;28;20116;-74
2021/05/30 09:19:38;;;;;;;5.10;2.15;;;;;;;;;;5051136;28;20484;-77
2021/05/30 09:22:22;;;;;;;4.28;2.30;;;;;;;;;;5044791;28;20064;-76
2021/05/30 09:24:47;;;;;;;5.53;2.60;;;;;;;;;;5059487;28;20043;-75
2021/05/30 09:27:12;;;;;;;3.90;2.53;;;;;;;;;;5070028;28;20433;-77
2021/05/30 09:29:38;;;;;;;3.47;2.20;;;;;;;;;;5054265;28;20255;-75
2021/05/30 09:32:03;;;;;;;4.10;2.65;;;;;;;;;;5064193;28;20025;-77
2021/05/30 09:34:31;;;;;;;5.53;2.30;;;;;;;;;;5062725;28;20116;-77
2021/05/30 09:36:56;;;;;;;4.25;2.25;;;;;;;;;;5054764;28;20028;-76
2021/05/30 09:39:40;;;;;;;7.03;2.97;;;;;;;;;;5050112;28;20023;-76
2021/05/30 09:42:25;;;;;;;4.32;2.55;;;;;;;;;;5065777;28;20024;-76
2021/05/30 09:44:54;;;;;;;4.35;2.80;;;;;;;;;;5051194;28;20079;-77
2021/05/30 09:47:43;;;;;;;4.32;2.17;;;;;;;;;;5055528;28;20054;-77
2021/05/30 09:50:10;;;;;;;3.35;2.35;;;;;;;;;;5067907;28;20024;-76
2021/05/30 09:52:39;;;;;;;4.25;2.28;;;;;;;;;;5056633;28;20029;-76
2021/05/30 09:55:14;;;;;;;3.60;2.00;;;;;;;;;;5064002;28;20031;-77
2021/05/30 09:57:39;;;;;;;3.53;2.40;;;;;;;;;;5067404;28;20055;-76
2021/05/30 10:00:06;;;;;;;3.60;2.13;;;;;;;;;;5052199;28;20474;-77
2021/05/30 10:02:34;;;;;;;5.32;2.15;;;;;;;;;;5060555;28;20035;-76
2021/05/30 10:04:59;;;;;;;4.13;2.40;;;;;;;;;;5051651;28;20032;-76
2021/05/30 10:07:25;;;;;;;5.00;2.35;;;;;;;;;;5062348;28;20382;-76
2021/05/30 10:09:51;;;;;;;3.63;2.15;;;;;;;;;;5069004;28;20352;-76
2021/05/30 10:12:18;;;;;;;3.38;2.30;;;;;;;;;;5068796;28;20024;-75
2021/05/30 10:14:44;;;;;;;3.80;2.30;;;;;;;;;;5062566;28;20017;-74
2021/05/30 10:17:10;;;;;;;5.25;3.00;;;;;;;;;;5062600;28;20040;-76
2021/05/30 10:19:41;;;;;;;5.03;2.58;;;;;;;;;;5060231;28;20036;-75
2021/05/30 10:22:08;;;;;;;3.70;2.20;;;;;;;;;;5072956;28;20114;-76
2021/05/30 10:24:38;;;;;;;3.85;2.35;;;;;;;;;;5061596;28;20075;-76
2021/05/30 10:27:17;;;;;;;3.30;2.50;;;;;;;;;;5061104;28;20037;-76
2021/05/30 10:30:00;;;;;;;5.05;2.65;;;;;;;;;;5060882;28;20028;-75
2021/05/30 10:32:25;;;;;;;4.97;2.95;;;;;;;;;;5070302;28;20453;-76
2021/05/30 10:35:09;;;;;;;4.18;2.90;;;;;;;;;;5072707;28;20013;-77
2021/05/30 10:37:45;;;;;;;3.03;2.33;;;;;;;;;;5067157;28;20023;-77
2021/05/30 10:40:22;;;;;;;4.03;2.60;;;;;;;;;;5080194;28;20467;-76
2021/05/30 10:43:06;;;;;;;4.85;2.38;;;;;;;;;;5071468;28;20103;-76
2021/05/30 10:45:31;;;;;;;3.50;2.28;;;;;;;;;;5062748;28;20035;-76
2021/05/30 10:48:03;;;;;;;5.60;2.88;;;;;;;;;;5062296;28;20021;-77
2021/05/30 10:50:39;;;;;;;4.72;2.50;;;;;;;;;;5052677;28;20112;-76
2021/05/30 10:53:24;;;;;;;3.83;2.30;;;;;;;;;;5059516;28;20040;-77
2021/05/30 10:55:49;;;;;;;4.93;2.75;;;;;;;;;;5052912;28;20021;-77
2021/05/30 10:58:16;;;;;;;5.22;2.65;;;;;;;;;;5072381;28;20070;-76
2021/05/30 11:00:41;;;;;;;4.70;2.50;;;;;;;;;;5059800;28;20115;-76
2021/05/30 11:03:08;;;;;;;4.20;2.70;;;;;;;;;;5071826;28;20103;-77
2021/05/30 11:05:38;;;;;;;4.53;2.50;;;;;;;;;;5071623;28;20036;-76
2021/05/30 11:08:04;;;;;;;3.33;2.15;;;;;;;;;;5072498;28;20070;-76
2021/05/30 11:10:29;;;;;;;4.30;2.42;;;;;;;;;;5072233;28;20414;-76
2021/05/30 11:12:55;;;;;;;6.55;2.70;;;;;;;;;;5066057;28;20472;-77
2021/05/30 11:15:24;;;;;;;3.92;2.40;;;;;;;;;;5052485;28;20025;-76
2021/05/30 11:17:50;;;;;;;4.17;2.27;;;;;;;;;;5071075;28;20020;-76
2021/05/30 11:20:36;;;;;;;4.65;2.40;;;;;;;;;;5066037;28;20108;-75
2021/05/30 11:23:02;;;;;;;3.38;1.90;;;;;;;;;;5041380;28;20454;-76
2021/05/30 11:25:35;;;;;;;4.10;1.80;;;;;;;;;;5053722;28;20035;-76
2021/05/30 11:28:02;;;;;;;5.03;2.67;;;;;;;;;;5063927;28;20079;-75
2021/05/30 11:30:33;;;;;;;3.45;2.55;;;;;;;;;;5059979;28;20025;-76
2021/05/30 11:32:59;;;;;;;3.17;2.13;;;;;;;;;;5070868;28;20044;-75
2021/05/30 11:35:24;;;;;;;8.75;2.53;;;;;;;;;;5070114;28;20027;-75
2021/05/30 11:37:51;;;;;;;5.20;2.80;;;;;;;;;;5052149;28;20045;-75
2021/05/30 11:40:19;;;;;;;3.90;2.72;;;;;;;;;;5065596;28;20022;-75
2021/05/30 11:42:46;;;;;;;4.25;2.53;;;;;;;;;;5057435;28;20471;-76
2021/05/30 11:45:28;;;;;;;4.07;2.42;;;;;;;;;;5052920;28;20118;-76
2021/05/30 11:48:13;;;;;;;4.05;2.78;;;;;;;;;;5072377;28;20031;-75
2021/05/30 11:50:51;;;;;;;5.13;2.83;;;;;;;;;;5059555;28;20017;-76
2021/05/30 11:53:27;;;;;;;4.45;2.67;;;;;;;;;;5069078;28;20016;-75
2021/05/30 11:55:52;;;;;;;4.25;2.60;;;;;;;;;;5046476;28;20013;-75
2021/05/30 11:58:17;;;;;;;4.15;2.40;;;;;;;;;;5051662;28;20106;-75
2021/05/30 12:00:43;;;;;;;5.47;2.63;;;;;;;;;;5051691;28;20013;-76
2021/05/30 12:03:12;;;;;;;5.53;2.60;;;;;;;;;;5057215;28;20101;-75
2021/05/30 12:05:37;;;;;;;4.17;2.60;;;;;;;;;;5044835;28;20402;-75
2021/05/30 12:08:12;;;;;;;6.63;2.60;;;;;;;;;;5051337;28;20123;-76
2021/05/30 12:10:46;;;;;;;4.50;2.60;;;;;;;;;;5045385;28;20040;-79
2021/05/30 12:13:23;;;;;;;5.03;2.83;;;;;;;;;;5060078;28;20017;-80
2021/05/30 12:15:48;;;;;;;4.15;2.30;;;;;;;;;;5070350;28;20025;-77
2021/05/30 12:18:13;;;;;;;5.20;3.00;;;;;;;;;;5055951;28;20031;-76
2021/05/30 12:20:41;;;;;;;4.17;2.37;;;;;;;;;;5050335;28;20052;-75
2021/05/30 12:23:07;;;;;;;4.70;2.25;;;;;;;;;;5069394;28;20267;-76
2021/05/30 12:25:32;;;;;;;3.80;2.40;;;;;;;;;;5050109;28;20074;-75
2021/05/30 12:27:57;;;;;;;4.63;2.47;;;;;;;;;;5058749;28;20028;-75
2021/05/30 12:30:23;;;;;;;4.95;2.50;;;;;;;;;;5062468;28;20596;-75
2021/05/30 12:32:49;;;;;;;3.33;2.25;;;;;;;;;;5038970;28;20056;-75
2021/05/30 12:35:14;;;;;;;4.20;2.80;;;;;;;;;;5043900;28;20021;-75
2021/05/30 12:37:41;;;;;;;5.43;2.63;;;;;;;;;;5064338;28;20042;-76
2021/05/30 12:40:07;;;;;;;4.80;2.60;;;;;;;;;;5063357;28;20019;-75
2021/05/30 12:42:32;;;;;;;6.93;3.67;;;;;;;;;;5050888;28;20119;-77
2021/05/30 12:45:03;;;;;;;5.93;2.58;;;;;;;;;;5050263;28;20428;-74
2021/05/30 12:47:36;;;;;;;3.67;2.50;;;;;;;;;;5039089;28;20083;-76
2021/05/30 12:50:05;;;;;;;5.07;2.50;;;;;;;;;;5058435;28;20422;-75
2021/05/30 12:52:49;;;;;;;5.30;2.22;;;;;;;;;;5062705;28;20035;-75
2021/05/30 12:55:15;;;;;;;4.25;2.65;;;;;;;;;;5066962;28;20017;-75
2021/05/30 12:57:48;;;;;;;3.85;2.38;;;;;;;;;;5051638;28;20047;-75
2021/05/30 13:00:26;;;;;;;3.70;2.30;;;;;;;;;;5067232;28;20025;-75
2021/05/30 13:02:55;;;;;;;4.07;2.05;;;;;;;;;;5060803;28;20027;-75
2021/05/30 13:05:30;;;;;;;3.38;2.30;;;;;;;;;;5063063;28;20467;-75
2021/05/30 13:07:55;;;;;;;3.65;2.25;;;;;;;;;;5063490;28;20039;-75
2021/05/30 13:10:21;;;;;;;4.13;1.97;;;;;;;;;;5065741;28;20480;-75
2021/05/30 13:12:46;;;;;;;2.90;2.03;;;;;;;;;;5064341;28;20324;-76
2021/05/30 13:15:15;;;;;;;4.82;1.98;;;;;;;;;;5057282;28;20428;-76
2021/05/30 13:17:42;;;;;;;4.38;2.15;;;;;;;;;;5063814;28;20021;-75
2021/05/30 13:20:08;;;;;;;3.25;1.90;;;;;;;;;;5063948;28;20028;-76
2021/05/30 13:22:34;;;;;;;3.55;2.20;;;;;;;;;;5060561;28;20498;-76
2021/05/30 13:25:00;;;;;;;3.28;2.20;;;;;;;;;;5054597;28;20722;-75
2021/05/30 13:27:26;;;;;;;3.13;1.90;;;;;;;;;;5066519;28;20052;-75
2021/05/30 13:30:04;;;;;;;5.45;2.25;;;;;;;;;;5054263;28;20452;-76
2021/05/30 13:32:29;;;;;;;3.53;2.40;;;;;;;;;;5066643;28;20056;-75
2021/05/30 13:34:54;;;;;;;6.07;2.42;;;;;;;;;;5059077;28;20017;-76
2021/05/30 13:37:19;;;;;;;3.53;2.35;;;;;;;;;;5065917;28;20096;-77
2021/05/30 13:39:44;;;;;;;4.38;2.50;;;;;;;;;;5062436;28;20067;-75
2021/05/30 13:42:10;;;;;;;3.40;2.17;;;;;;;;;;5062597;28;20017;-76
2021/05/30 13:44:35;;;;;;;4.00;2.20;;;;;;;;;;5069006;28;20027;-77
2021/05/30 13:47:00;;;;;;;4.63;1.92;;;;;;;;;;5069266;28;20040;-75
2021/05/30 13:49:25;;;;;;;4.60;2.60;;;;;;;;;;5062188;28;20079;-77
2021/05/30 13:51:51;;;;;;;5.32;2.50;;;;;;;;;;5061777;28;20260;-76
2021/05/30 13:54:16;;;;;;;3.35;2.28;;;;;;;;;;5059625;28;20104;-75
2021/05/30 13:56:41;;;;;;;4.50;2.53;;;;;;;;;;5063551;28;20107;-75
2021/05/30 13:59:09;;;;;;;3.63;2.22;;;;;;;;;;5069163;28;20278;-75
2021/05/30 14:01:34;;;;;;;4.13;2.55;;;;;;;;;;5069338;28;20021;-76
2021/05/30 14:03:59;;;;;;;3.70;2.40;;;;;;;;;;5063383;28;20016;-75
2021/05/30 14:06:24;;;;;;;4.25;2.50;;;;;;;;;;5062710;28;20295;-76
2021/05/30 14:08:52;;;;;;;3.67;2.43;;;;;;;;;;5058227;28;20021;-76
2021/05/30 14:11:19;;;;;;;4.90;2.88;;;;;;;;;;5054596;28;20294;-75
2021/05/30 14:13:44;;;;;;;5.07;2.45;;;;;;;;;;5062443;28;20383;-75
2021/05/30 14:16:09;;;;;;;6.20;2.50;;;;;;;;;;5051792;28;20025;-75
2021/05/30 14:18:35;;;;;;;3.60;2.13;;;;;;;;;;5049350;28;20275;-75
2021/05/30 14:21:00;;;;;;;4.85;2.25;;;;;;;;;;5059088;28;20262;-75
2021/05/30 14:23:25;;;;;;;3.88;1.90;;;;;;;;;;5065066;28;20100;-75
2021/05/30 14:25:50;;;;;;;4.25;3.17;;;;;;;;;;5058928;28;20028;-75
2021/05/30 14:28:16;;;;;;;4.55;2.90;;;;;;;;;;5062128;28;20438;-76
2021/05/30 14:30:41;;;;;;;4.47;2.63;;;;;;;;;;5059930;28;20021;-76
2021/05/30 14:33:07;;;;;;;3.90;2.37;;;;;;;;;;5056758;28;20168;-74
2021/05/30 14:35:32;;;;;;;4.47;2.38;;;;;;;;;;5061903;28;20291;-74
2021/05/30 14:37:57;;;;;;;5.40;2.55;;;;;;;;;;5068381;28;20021;-75
2021/05/30 14:40:23;;;;;;;7.27;2.70;;;;;;;;;;5068533;28;20061;-75